DAUB

Biskra Airport

Biskra, Algeria
METAR DAUB 242000Z 32008KT 9999 SCT033 BKN100 12/02 Q1004
Observed Flight Rules
Feb-24 @ 20:00 UTC (13 minutes ago) Visual Flight Rules
Wind Visibility Clouds
320° at 8 knots 10,000+ meters
  • Scattered at 3,300' AGL
  • Broken at 10,000' AGL
Temperatures Readings
Current 12°C / 54°F
Dewpoint 2°C / 36°F
Humidity 51%
Altimeter 29.65" Hg
Pressure 1004 hPa
Elevation 87
METAR DAUB 242000Z 32008KT 9999 SCT033 BKN100 12/02 Q1004
Observed Flight Rules
Feb-24 @ 20:00 UTC
(13 minutes ago)
VFR
Wind Visibility
320° at 8 knots 10,000+ meters
Clouds
  • Scattered at 3,300' AGL
  • Broken at 10,000' AGL
Temperature Dewpoint
12°C / 54°F 2°C / 36°F
Humidity Altimeter Pressure
51% 29.65" Hg 1004 hPa